Overview Statistics Trail Chart Weather Telemetry Raw packets
 

This is the latest recevied weather packets stored in our database for station/object VK2KGV-15. If no packets are shown the sender has not sent any weather packets the latest 10 day(s).

<< 1 2 3 4 >>
Time Temp. Humidity Pressure Rain* Wind** Luminosity Snow
1788610144 21.67° C 40% 1015.7 hPa 0 mm - - -
1788608938 21.67° C 41% 1015.6 hPa 0 mm - - -
1788607732 17.78° C 48% 1015.9 hPa 0 mm - - -
1788606526 17.22° C 50% 1015.9 hPa 0 mm - - -
1788605319 16.67° C 49% 1015.9 hPa 0 mm - - -
1788604113 17.22° C 47% 1015.9 hPa 0 mm - - -
1788602907 17.22° C 49% 1015.8 hPa 0 mm - - -
1788601701 17.22° C 47% 1015.7 hPa 0 mm - - -
1788600494 17.78° C 44% 1015.7 hPa 0 mm - - -
1788598082 21.11° C 36% 1015.3 hPa 0 mm - - -
1788596876 22.22° C 33% 1015 hPa 0 mm - - -
1788595670 23.89° C 30% 1014.8 hPa 0 mm - - -
1788594463 25° C 29% 1014.6 hPa 0 mm - - -
1788593257 26.11° C 27% 1014.5 hPa 0 mm - - -
1788592051 26.67° C 27% 1014.4 hPa 0 mm - - -
1788590845 27.22° C 26% 1014.3 hPa 0 mm - - -
1788589638 27.22° C 26% 1014.3 hPa 0 mm - - -
1788588432 28.33° C 24% 1014.3 hPa 0 mm - - -
1788586020 29.44° C 23% 1014.3 hPa 0 mm - - -
1788585417 29.44° C 23% 1014.4 hPa 0 mm - - -
1788582401 30° C 23% 1014.7 hPa 0 mm - - -
1788581195 30° C 23% 1014.8 hPa 0 mm - - -
1788580592 28.89° C 24% 1015 hPa 0 mm - - -
1788579989 28.89° C 24% 1015 hPa 0 mm - - -
1788579386 30° C 22% 1015 hPa 0 mm - - -

* Rain since midnight (hover to see other rain measurements)
** Current wind speed in m/s (hover to see current wind gust speed)